Time;durP1;ratioP1;P1;durP2;ratioP2;P2;SDS_P1;SDS_P2;PMS_P1;PMS_P2;Temp;Humidity;BMP_temperature;BMP_pressure;BME280_temperature;BME280_humidity;BME280_pressure;Samples;Min_cycle;Max_cycle;Signal;HPM_P1;HPM_P2
2022/09/28 00:04:37;;;;;;;12.15;6.12;;;;;;;17.67;93.69;97487.23;4475616;78;28535;-89
2022/09/28 00:10:40;;;;;;;11.12;6.40;;;;;;;17.61;93.56;97480.91;4567002;76;28530;-89
2022/09/28 00:16:43;;;;;;;10.55;6.10;;;;;;;16.99;95.98;97480.09;4584157;78;28478;-91
2022/09/28 00:22:44;;;;;;;9.73;6.10;;;;;;;17.14;95.44;97465.33;4564754;76;28494;-90
2022/09/28 00:28:46;;;;;;;10.13;5.87;;;;;;;16.92;95.69;97481.11;4554281;78;28459;-89
2022/09/28 00:34:48;;;;;;;10.78;5.60;;;;;;;16.59;99.06;97479.47;4536974;78;28595;-89
2022/09/28 00:40:49;;;;;;;9.10;5.80;;;;;;;16.63;97.67;97481.55;4542208;77;28497;-88
2022/09/28 00:47:18;;;;;;;8.85;5.03;;;;;;;16.39;98.37;97481.31;4580791;76;28514;-88
2022/09/28 00:53:27;;;;;;;9.70;5.72;;;;;;;16.63;96.69;97486.98;4561789;76;28537;-89
2022/09/28 00:59:32;;;;;;;11.48;6.25;;;;;;;16.14;99.30;97485.66;4553436;77;28543;-88
2022/09/28 01:05:34;;;;;;;10.13;6.17;;;;;;;16.12;99.62;97481.11;4540303;76;28481;-89
2022/09/28 01:11:37;;;;;;;11.63;5.62;;;;;;;15.73;100.00;97474.34;4596025;76;28494;-87
2022/09/28 01:18:09;;;;;;;9.45;5.80;;;;;;;15.83;100.00;97470.05;4490019;76;28458;-88
2022/09/28 01:24:38;;;;;;;9.83;6.28;;;;;;;16.43;98.72;97464.66;4583055;76;28493;-89
2022/09/28 01:31:02;;;;;;;10.63;5.95;;;;;;;16.38;99.34;97468.87;4581646;76;28510;-88
2022/09/28 01:37:08;;;;;;;10.80;6.05;;;;;;;16.71;97.74;97476.20;4561686;76;28477;-86
2022/09/28 01:43:27;;;;;;;10.60;5.95;;;;;;;16.48;97.88;97477.30;4562918;78;28551;-86
2022/09/28 01:49:46;;;;;;;12.65;6.37;;;;;;;16.59;98.29;97477.30;4537145;76;28461;-86
2022/09/28 01:55:54;;;;;;;10.03;6.10;;;;;;;16.52;98.16;97481.02;4581518;77;28564;-86
2022/09/28 02:02:10;;;;;;;11.08;5.50;;;;;;;17.04;95.97;97485.19;4554361;76;28496;-87
2022/09/28 02:08:19;;;;;;;8.33;4.80;;;;;;;17.29;92.21;97486.41;4566059;77;28510;-87
2022/09/28 02:14:25;;;;;;;5.95;3.98;;;;;;;17.42;91.03;97490.93;4533283;76;28526;-87
2022/09/28 02:20:30;;;;;;;6.60;3.33;;;;;;;17.50;88.60;97500.79;4402023;79;28503;-87
2022/09/28 02:26:36;;;;;;;5.83;3.20;;;;;;;17.35;83.48;97492.50;4467329;78;28532;-88
2022/09/28 02:32:42;;;;;;;4.45;2.47;;;;;;;17.33;81.73;97500.95;4480893;78;28539;-88
2022/09/28 02:38:43;;;;;;;4.57;2.60;;;;;;;17.07;81.65;97500.84;4464872;78;28480;-87
2022/09/28 02:45:17;;;;;;;5.45;2.75;;;;;;;16.98;80.92;97508.92;4482764;78;28480;-85
2022/09/28 02:51:30;;;;;;;3.83;2.72;;;;;;;16.43;84.38;97511.59;4483514;78;28528;-87
2022/09/28 02:58:05;;;;;;;4.47;2.27;;;;;;;16.00;89.16;97520.15;4478845;79;28583;-85
2022/09/28 03:04:27;;;;;;;7.83;3.17;;;;;;;15.54;89.98;97523.22;4406899;79;38971;-86
2022/09/28 03:11:00;;;;;;;4.42;2.70;;;;;;;15.16;93.79;97511.45;4477364;79;28543;-86
2022/09/28 03:17:02;;;;;;;4.60;2.58;;;;;;;15.27;92.96;97509.37;4405685;80;28528;-84
2022/09/28 03:23:04;;;;;;;5.12;3.00;;;;;;;15.38;90.90;97503.76;4393694;80;28787;-87
2022/09/28 03:29:05;;;;;;;3.35;2.40;;;;;;;15.17;90.83;97508.20;4399446;80;28551;-83
2022/09/28 03:35:09;;;;;;;4.75;2.50;;;;;;;15.10;90.73;97506.43;4402787;80;28569;-88
2022/09/28 03:41:10;;;;;;;4.92;2.80;;;;;;;14.50;93.63;97513.59;4400894;80;28543;-88
2022/09/28 03:47:16;;;;;;;4.40;3.10;;;;;;;14.63;93.04;97505.28;4401584;80;28483;-88
2022/09/28 03:53:17;;;;;;;5.67;2.85;;;;;;;14.51;94.55;97509.00;4410715;78;28502;-91
2022/09/28 03:59:19;;;;;;;4.28;2.60;;;;;;;14.06;94.10;97525.59;4399068;78;28529;-90
2022/09/28 04:05:20;;;;;;;5.35;2.30;;;;;;;13.96;93.55;97524.38;4386695;78;28549;-90
2022/09/28 04:11:23;;;;;;;4.47;2.60;;;;;;;13.47;95.33;97523.07;4358532;80;28543;-87
2022/09/28 04:17:24;;;;;;;5.60;2.30;;;;;;;13.56;94.66;97522.70;4400740;80;28621;-94
2022/09/28 04:23:27;;;;;;;5.20;2.37;;;;;;;13.29;95.31;97524.59;4390002;79;28522;-93
2022/09/28 04:29:30;;;;;;;5.65;2.33;;;;;;;13.32;95.74;97526.17;4388665;80;28523;-91
2022/09/28 04:35:33;;;;;;;4.58;2.40;;;;;;;13.48;94.52;97529.55;4386236;80;28491;-84
2022/09/28 04:41:36;;;;;;;3.17;2.00;;;;;;;13.65;92.35;97533.13;4371109;81;28494;-85
2022/09/28 04:47:37;;;;;;;4.37;2.02;;;;;;;12.96;96.65;97534.08;4395687;80;28484;-88
2022/09/28 04:53:43;;;;;;;3.67;2.00;;;;;;;13.19;96.77;97538.45;4396652;80;28521;-90
2022/09/28 04:59:45;;;;;;;3.90;2.30;;;;;;;13.64;92.50;97537.45;4392939;80;28470;-91
2022/09/28 05:05:48;;;;;;;5.30;2.10;;;;;;;13.49;93.84;97544.65;4379441;80;28540;-90
2022/09/28 05:11:57;;;;;;;4.47;2.33;;;;;;;13.28;95.23;97552.67;4382340;79;28543;-94
2022/09/28 05:18:00;;;;;;;5.30;2.60;;;;;;;13.45;96.60;97549.02;4408850;80;28516;-84
2022/09/28 05:24:06;;;;;;;;;;;;;;;13.69;96.22;97555.50;4412258;79;28553;-85
2022/09/28 05:30:10;;;;;;;5.45;2.22;;;;;;;14.14;94.37;97558.73;4409463;80;20166;-84
2022/09/28 05:36:29;;;;;;;5.40;2.60;;;;;;;14.45;93.08;97548.02;4406323;80;28667;-85
2022/09/28 05:42:31;;;;;;;4.33;2.55;;;;;;;14.44;93.53;97540.48;4363233;79;28518;-85
2022/09/28 05:48:34;;;;;;;3.95;2.60;;;;;;;14.27;94.66;97544.23;4371556;79;28494;-86
2022/09/28 05:54:36;;;;;;;5.15;3.00;;;;;;;14.95;91.56;97552.16;4365030;79;28524;-83
2022/09/28 06:00:38;;;;;;;6.33;2.35;;;;;;;15.23;91.67;97548.95;4399155;79;28547;-81
2022/09/28 06:06:42;;;;;;;4.65;2.10;;;;;;;16.06;86.02;97552.02;4441176;78;28578;-83
2022/09/28 06:12:46;;;;;;;3.70;1.65;;;;;;;16.38;82.81;97559.72;4414232;79;28490;-83
2022/09/28 06:18:49;;;;;;;3.65;2.00;;;;;;;16.28;81.20;97553.41;4562039;76;28503;-81
2022/09/28 06:24:52;;;;;;;2.92;1.82;;;;;;;16.38;79.42;97551.02;4483193;76;28573;-83
2022/09/28 06:31:01;;;;;;;3.95;1.92;;;;;;;16.07;80.12;97559.82;4567755;76;28519;-82
2022/09/28 06:37:07;;;;;;;3.67;1.72;;;;;;;16.42;79.79;97554.73;4546833;77;28535;-82
2022/09/28 06:43:13;;;;;;;4.00;1.55;;;;;;;16.32;79.54;97554.97;4571002;76;28526;-82
2022/09/28 06:49:35;;;;;;;4.33;1.60;;;;;;;16.27;79.63;97544.22;4542996;77;28647;-82
2022/09/28 06:55:50;;;;;;;3.72;1.50;;;;;;;16.57;74.87;97527.00;4464417;78;28517;-84
2022/09/28 07:01:55;;;;;;;3.72;1.25;;;;;;;16.79;74.24;97515.89;4525388;76;28568;-84
2022/09/28 07:08:03;;;;;;;3.87;1.20;;;;;;;16.60;74.18;97525.02;4500723;76;28551;-85
2022/09/28 07:14:20;;;;;;;1.20;0.63;;;;;;;16.34;74.15;97549.22;4464060;78;28536;-84
2022/09/28 07:20:22;;;;;;;0.88;0.60;;;;;;;16.97;70.80;97555.61;4438955;78;34069;-84
2022/09/28 07:26:24;;;;;;;2.05;0.65;;;;;;;18.09;67.77;97545.88;4454137;79;28594;-85
2022/09/28 07:32:35;;;;;;;3.67;0.68;;;;;;;17.45;65.62;97554.70;4475489;79;28539;-88
2022/09/28 07:38:38;;;;;;;1.35;1.10;;;;;;;17.67;64.86;97551.09;4411388;79;28530;-85
2022/09/28 07:44:40;;;;;;;2.42;1.00;;;;;;;17.23;64.87;97556.91;4468867;78;28517;-86
2022/09/28 07:50:52;;;;;;;0.80;0.60;;;;;;;17.59;65.56;97545.64;4451764;78;28531;-84
2022/09/28 07:57:15;;;;;;;0.80;0.50;;;;;;;17.28;62.46;97551.33;4475478;79;28535;-85
2022/09/28 08:03:21;;;;;;;0.85;0.57;;;;;;;17.32;63.10;97561.83;4455774;79;28617;-84
2022/09/28 08:09:23;;;;;;;1.42;0.42;;;;;;;18.28;61.73;97557.84;4333178;79;28500;-85
2022/09/28 08:22:04;;;;;;;0.60;0.50;;;;;;;18.94;57.41;97555.48;4251749;79;28525;-86
2022/09/28 08:28:06;;;;;;;0.40;0.33;;;;;;;18.71;57.18;97560.89;4373275;79;28536;-85
2022/09/28 08:34:32;;;;;;;0.70;0.45;;;;;;;18.42;56.69;97556.30;4397484;80;28529;-85
2022/09/28 08:41:25;;;;;;;1.30;0.30;;;;;;;18.46;56.41;97546.95;4560390;77;28546;-84
2022/09/28 08:54:59;;;;;;;0.42;0.20;;;;;;;19.47;53.20;97533.57;4439888;76;28513;-84
2022/09/28 09:01:10;;;;;;;2.08;0.35;;;;;;;19.15;52.55;97527.59;4663022;76;28494;-84
2022/09/28 09:07:58;;;;;;;1.02;0.30;;;;;;;18.89;52.86;97535.80;4548741;76;28513;-85
2022/09/28 09:14:29;;;;;;;0.70;0.42;;;;;;;19.44;52.38;97542.96;4464995;79;28538;-84
2022/09/28 09:20:57;;;;;;;1.82;0.30;;;;;;;19.04;51.48;97538.03;4534843;77;28512;-83
2022/09/28 09:27:28;;;;;;;2.12;0.45;;;;;;;19.29;51.73;97541.02;4551000;77;28544;-83
2022/09/28 09:33:57;;;;;;;0.53;0.40;;;;;;;20.19;50.64;97545.16;4513267;78;28498;-85
2022/09/28 09:40:50;;;;;;;0.62;0.30;;;;;;;20.69;49.23;97539.17;4535879;78;28534;-84
2022/09/28 09:47:14;;;;;;;0.90;0.50;;;;;;;20.98;48.59;97544.28;4539602;78;28579;-84
2022/09/28 09:53:43;;;;;;;1.67;0.40;;;;;;;20.88;47.74;97551.80;4491191;78;28515;-84
2022/09/28 09:59:47;;;;;;;0.53;0.33;;;;;;;20.56;49.09;97550.59;4470366;79;28516;-85
2022/09/28 10:06:09;;;;;;;0.25;0.20;;;;;;;20.49;49.04;97541.58;4404008;79;28508;-85
2022/09/28 10:12:14;;;;;;;;;;;;;;;20.08;50.34;97526.21;4362979;81;28541;-84
2022/09/28 10:18:19;;;;;;;0.60;0.30;;;;;;;19.75;50.95;97524.95;4368249;80;20365;-87
2022/09/28 10:24:57;;;;;;;0.90;0.30;;;;;;;19.69;52.15;97524.89;4393170;80;28527;-86
2022/09/28 10:30:56;;;;;;;0.40;0.30;;;;;;;19.44;51.90;97517.88;4376944;80;28464;-87
2022/09/28 10:37:07;;;;;;;0.80;0.47;;;;;;;19.99;50.59;97514.55;4393458;79;28590;-86
2022/09/28 10:43:22;;;;;;;1.12;0.40;;;;;;;20.32;50.81;97512.50;4387381;80;28516;-86
2022/09/28 10:49:29;;;;;;;0.55;0.33;;;;;;;19.64;50.66;97514.19;4395269;79;28523;-87
2022/09/28 10:55:35;;;;;;;1.30;0.25;;;;;;;19.92;51.48;97502.23;4376994;81;28463;-84
2022/09/28 11:01:36;;;;;;;0.95;0.40;;;;;;;20.48;48.57;97493.58;4388065;80;28824;-84
2022/09/28 11:07:46;;;;;;;3.08;0.40;;;;;;;21.22;49.07;97486.75;4406726;80;28516;-83
2022/09/28 11:13:54;;;;;;;1.70;0.40;;;;;;;21.80;48.34;97477.09;4376868;80;28468;-84
2022/09/28 11:20:28;;;;;;;0.82;0.40;;;;;;;21.59;48.21;97457.48;4558378;76;28553;-83
2022/09/28 11:26:39;;;;;;;0.53;0.30;;;;;;;21.26;49.84;97443.92;4555680;76;28588;-83
2022/09/28 11:32:44;;;;;;;0.68;0.40;;;;;;;21.35;48.48;97443.80;4564016;77;28494;-83
2022/09/28 11:39:38;;;;;;;3.02;0.50;;;;;;;21.22;47.70;97438.34;4536264;76;28592;-83
2022/09/28 11:46:02;;;;;;;1.07;0.63;;;;;;;21.56;48.14;97436.30;4565076;78;28467;-83
2022/09/28 11:52:21;;;;;;;2.35;0.60;;;;;;;21.36;48.40;97434.49;4552273;78;28486;-82
2022/09/28 11:58:35;;;;;;;0.40;0.30;;;;;;;21.18;48.97;97438.22;4564967;77;28560;-82
2022/09/28 12:04:43;;;;;;;3.20;1.00;;;;;;;21.39;48.35;97424.23;4552240;77;28574;-83
2022/09/28 12:11:00;;;;;;;1.20;0.50;;;;;;;20.98;49.88;97433.65;4556212;78;28526;-82
2022/09/28 12:17:30;;;;;;;1.57;0.40;;;;;;;21.13;49.43;97415.80;4391651;79;28533;-82
2022/09/28 12:23:35;;;;;;;1.95;0.53;;;;;;;20.86;49.34;97405.77;4382821;80;28512;-84
2022/09/28 12:29:54;;;;;;;0.70;0.30;;;;;;;20.53;49.38;97398.40;4417846;79;28573;-83
2022/09/28 12:36:25;;;;;;;1.55;0.30;;;;;;;20.25;48.90;97413.99;4405445;78;28545;-84
2022/09/28 12:42:51;;;;;;;0.68;0.30;;;;;;;20.55;49.83;97396.91;4375366;80;28547;-85
2022/09/28 12:49:29;;;;;;;1.22;0.42;;;;;;;20.60;48.76;97378.95;4350258;81;28629;-83
2022/09/28 12:55:53;;;;;;;0.57;0.28;;;;;;;20.82;48.52;97372.06;4420933;79;28487;-85
2022/09/28 13:02:19;;;;;;;1.00;0.37;;;;;;;21.05;48.78;97364.81;4367631;81;28538;-85
2022/09/28 13:08:35;;;;;;;0.57;0.28;;;;;;;21.17;48.41;97357.39;4333630;81;28589;-85
2022/09/28 13:15:08;;;;;;;1.40;0.40;;;;;;;21.34;47.66;97352.83;4422133;80;28535;-86
2022/09/28 13:21:27;;;;;;;1.12;0.33;;;;;;;21.86;48.57;97351.81;4575132;77;28520;-85
2022/09/28 13:27:34;;;;;;;0.62;0.30;;;;;;;21.97;47.69;97364.41;4523162;78;28682;-86
2022/09/28 13:33:39;;;;;;;0.60;0.50;;;;;;;22.62;46.57;97355.23;4536322;77;28530;-90
2022/09/28 13:39:49;;;;;;;1.05;0.50;;;;;;;22.67;47.13;97356.32;4574657;77;28525;-85
2022/09/28 13:45:58;;;;;;;0.47;0.35;;;;;;;23.10;46.17;97362.05;4558822;76;28514;-86
2022/09/28 13:52:38;;;;;;;0.98;0.40;;;;;;;23.17;46.23;97338.12;4581827;76;28482;-85
2022/09/28 13:59:04;;;;;;;0.50;0.30;;;;;;;23.54;45.79;97353.45;4546477;76;28509;-90
2022/09/28 14:05:37;;;;;;;0.55;0.40;;;;;;;22.96;45.74;97367.98;4332205;80;28585;-87
2022/09/28 14:12:00;;;;;;;2.58;0.30;;;;;;;23.04;46.07;97373.65;4548574;77;28588;-86
2022/09/28 14:18:30;;;;;;;0.70;0.40;;;;;;;22.98;46.37;97373.91;4560558;76;28537;-86
2022/09/28 14:25:02;;;;;;;1.60;0.30;;;;;;;22.65;47.66;97376.98;4535447;77;28564;-84
2022/09/28 14:31:09;;;;;;;4.47;0.47;;;;;;;22.29;48.84;97356.31;4515390;76;28508;-85
2022/09/28 14:43:53;;;;;;;1.47;0.50;;;;;;;21.73;51.25;97351.05;4561706;77;28455;-86
2022/09/28 14:50:00;;;;;;;0.47;0.37;;;;;;;21.48;53.63;97338.80;4565241;78;28491;-85
2022/09/28 14:56:07;;;;;;;1.22;0.50;;;;;;;21.28;55.60;97336.42;4536209;78;28513;-87
2022/09/28 15:02:20;;;;;;;2.67;0.53;;;;;;;20.93;57.65;97330.90;4544410;76;28539;-86
2022/09/28 15:08:22;;;;;;;1.30;0.72;;;;;;;20.75;59.01;97327.55;4449909;78;28584;-84
2022/09/28 15:14:23;;;;;;;2.77;0.65;;;;;;;20.65;59.08;97332.09;4461594;78;28520;-85
2022/09/28 15:20:30;;;;;;;3.87;0.80;;;;;;;20.76;57.82;97342.78;4540575;77;28482;-85
2022/09/28 15:26:33;;;;;;;2.08;0.90;;;;;;;20.49;56.67;97342.31;4534594;77;28572;-85
2022/09/28 15:32:35;;;;;;;2.50;1.32;;;;;;;20.62;56.29;97337.09;4549758;76;28578;-85
2022/09/28 15:38:43;;;;;;;1.80;0.85;;;;;;;20.76;57.27;97342.23;4456957;79;28534;-86
2022/09/28 15:45:06;;;;;;;4.22;1.00;;;;;;;20.91;58.95;97339.98;4581202;77;28443;-85
2022/09/28 15:51:10;;;;;;;3.67;0.98;;;;;;;20.53;59.05;97336.98;4575924;76;28562;-85
2022/09/28 15:57:31;;;;;;;1.70;0.95;;;;;;;20.63;58.03;97336.54;4577515;76;28547;-84
2022/09/28 16:03:32;;;;;;;3.15;1.10;;;;;;;20.56;58.31;97337.08;4579247;76;28530;-84
2022/09/28 16:09:57;;;;;;;1.60;1.00;;;;;;;20.49;56.20;97340.95;4572778;76;28526;-85
2022/09/28 16:15:59;;;;;;;2.42;0.93;;;;;;;20.28;55.86;97328.73;4569419;76;28478;-84
2022/09/28 16:22:05;;;;;;;3.35;1.00;;;;;;;20.42;55.08;97328.42;4578400;76;28539;-85
2022/09/28 16:28:13;;;;;;;2.70;1.03;;;;;;;20.30;54.82;97334.64;4556622;76;28510;-86
2022/09/28 16:34:19;;;;;;;3.67;0.98;;;;;;;20.32;55.26;97340.00;4550826;76;28559;-86
2022/09/28 16:40:21;;;;;;;1.40;0.98;;;;;;;20.26;54.28;97341.91;4541268;77;28596;-86
2022/09/28 16:46:36;;;;;;;2.37;1.00;;;;;;;20.25;54.92;97347.92;4558008;77;28502;-86
2022/09/28 16:58:57;;;;;;;2.02;1.10;;;;;;;20.09;53.98;97344.25;4543600;77;28605;-91
2022/09/28 17:05:05;;;;;;;3.00;1.30;;;;;;;20.13;55.10;97347.89;4529124;76;28539;-86
2022/09/28 17:11:04;;;;;;;2.85;0.90;;;;;;;19.95;55.56;97352.72;4542830;78;28536;-86
2022/09/28 17:17:06;;;;;;;2.25;1.02;;;;;;;20.27;56.01;97347.60;4540777;76;28490;-86
2022/09/28 17:23:11;;;;;;;2.62;1.05;;;;;;;19.86;57.58;97350.83;4562825;76;28526;-91
2022/09/28 17:29:16;;;;;;;1.70;1.20;;;;;;;20.42;56.49;97355.71;4551623;76;28936;-94
2022/09/28 17:35:18;;;;;;;2.60;1.10;;;;;;;20.00;57.31;97362.86;4484106;78;28510;-87
2022/09/28 17:41:20;;;;;;;1.90;1.02;;;;;;;19.68;58.78;97363.81;4578391;78;28561;-94
2022/09/28 17:47:21;;;;;;;2.95;1.05;;;;;;;19.67;60.15;97358.13;4547440;77;28512;-84
2022/09/28 17:53:22;;;;;;;3.80;1.22;;;;;;;19.61;59.78;97367.62;4554665;76;28485;-90
2022/09/28 17:59:26;;;;;;;1.98;1.17;;;;;;;19.68;59.14;97373.91;4502778;78;28499;-90
2022/09/28 18:05:29;;;;;;;6.78;3.15;;;;;;;19.76;59.11;97374.41;4501372;78;28566;-91
2022/09/28 18:11:32;;;;;;;3.83;1.75;;;;;;;19.94;59.21;97379.77;4404290;79;29187;-91
2022/09/28 18:17:48;;;;;;;3.08;1.20;;;;;;;20.14;58.92;97378.13;4513628;78;28494;-84
2022/09/28 18:23:51;;;;;;;3.22;1.30;;;;;;;19.63;61.76;97383.11;4574196;76;28647;-87
2022/09/28 18:29:54;;;;;;;3.10;1.80;;;;;;;19.20;61.83;97393.14;4569412;76;28444;-86
2022/09/28 18:35:58;;;;;;;2.97;1.70;;;;;;;19.31;60.98;97390.82;4567605;76;28498;-87
2022/09/28 18:42:00;;;;;;;6.33;3.87;;;;;;;19.26;61.19;97397.25;4530349;78;28545;-86
2022/09/28 18:48:05;;;;;;;5.95;2.22;;;;;;;19.33;61.16;97400.85;4554666;76;28512;-89
2022/09/28 18:54:09;;;;;;;2.77;1.62;;;;;;;19.32;60.96;97410.94;4547566;76;28537;-91
2022/09/28 19:00:14;;;;;;;2.92;1.27;;;;;;;19.29;61.73;97425.23;4545579;76;28526;-96
2022/09/28 19:06:16;;;;;;;3.60;1.15;;;;;;;19.28;63.19;97429.08;4548794;78;28505;-95
2022/09/28 19:12:25;;;;;;;4.35;1.60;;;;;;;19.05;66.30;97425.23;4477747;77;28586;-94
2022/09/28 19:18:34;;;;;;;4.80;1.17;;;;;;;18.81;67.71;97430.66;4550852;77;28508;-95
2022/09/28 19:24:39;;;;;;;3.25;1.60;;;;;;;18.62;70.87;97434.31;4519098;77;28533;-89
2022/09/28 19:31:02;;;;;;;4.73;1.77;;;;;;;18.68;70.68;97447.42;4512469;77;28515;-89
2022/09/28 19:37:09;;;;;;;3.83;1.70;;;;;;;18.90;66.91;97433.92;4526519;78;28513;-91
2022/09/28 19:43:10;;;;;;;5.33;2.10;;;;;;;18.97;65.41;97448.39;4550362;78;28535;-96
2022/09/28 19:49:21;;;;;;;2.55;1.60;;;;;;;19.00;64.50;97450.46;4551179;78;28584;-92
2022/09/28 19:55:23;;;;;;;2.15;1.60;;;;;;;19.19;64.76;97449.53;4517598;78;28550;-93
2022/09/28 20:01:29;;;;;;;3.10;1.60;;;;;;;19.16;65.22;97457.01;4505525;78;28485;-95
2022/09/28 20:07:33;;;;;;;3.22;1.02;;;;;;;19.11;66.12;97456.39;4494318;79;28566;-94
2022/09/28 20:13:36;;;;;;;2.40;1.20;;;;;;;19.13;66.33;97456.86;4568757;78;28493;-95
2022/09/28 20:19:41;;;;;;;2.10;1.20;;;;;;;19.25;66.39;97464.34;4373971;79;28511;-95
2022/09/28 20:25:42;;;;;;;2.35;1.45;;;;;;;19.31;67.13;97478.82;4405250;81;28523;-95
2022/09/28 20:31:44;;;;;;;2.37;1.47;;;;;;;19.32;68.44;97487.81;4406552;80;28554;-95
2022/09/28 20:37:46;;;;;;;5.62;1.55;;;;;;;19.27;70.72;97495.59;4405497;81;28589;-94
2022/09/28 20:43:54;;;;;;;4.70;1.82;;;;;;;19.13;71.68;97515.42;4411333;79;28593;-91
2022/09/28 20:49:56;;;;;;;3.12;2.00;;;;;;;19.07;75.57;97539.31;4424204;78;28510;-92
2022/09/28 20:56:18;;;;;;;2.67;1.95;;;;;;;18.93;78.87;97538.10;4409125;80;28600;-95
2022/09/28 21:02:18;;;;;;;2.80;1.90;;;;;;;18.93;80.98;97521.22;4415518;79;28507;-91
2022/09/28 21:08:22;;;;;;;2.47;1.40;;;;;;;18.61;84.42;97517.91;4402450;80;28557;-91
2022/09/28 21:14:24;;;;;;;3.60;1.70;;;;;;;18.61;85.38;97524.70;4388743;80;28555;-95
2022/09/28 21:20:25;;;;;;;1.92;1.40;;;;;;;18.92;81.47;97524.25;4593930;77;28465;-92
2022/09/28 21:26:30;;;;;;;3.15;1.90;;;;;;;18.70;85.01;97524.69;4557859;77;28521;-93
2022/09/28 21:32:34;;;;;;;2.22;1.40;;;;;;;18.57;87.29;97528.39;4556655;75;28538;-92
2022/09/28 21:38:34;;;;;;;5.95;1.98;;;;;;;18.51;89.35;97536.70;4445078;78;28507;-92
2022/09/28 21:44:36;;;;;;;4.67;1.95;;;;;;;18.57;88.33;97534.62;4443873;80;28585;-93
2022/09/28 21:50:37;;;;;;;2.72;1.67;;;;;;;18.97;88.02;97527.37;4413381;80;28498;-92
2022/09/28 21:56:39;;;;;;;3.98;1.98;;;;;;;18.60;90.22;97530.46;4444124;80;28469;-92
2022/09/28 22:02:43;;;;;;;3.10;1.77;;;;;;;18.69;90.16;97533.98;4442483;78;28530;-92
2022/09/28 22:08:46;;;;;;;3.77;2.05;;;;;;;18.72;90.03;97541.49;4447057;79;28487;-90
2022/09/28 22:14:48;;;;;;;3.65;1.98;;;;;;;19.00;87.01;97549.34;4438865;80;28486;-94
2022/09/28 22:20:59;;;;;;;2.85;1.50;;;;;;;18.78;89.09;97555.73;4399498;80;28511;-93
2022/09/28 22:27:01;;;;;;;3.62;2.00;;;;;;;18.65;89.97;97565.70;4425020;79;28515;-92
2022/09/28 22:33:02;;;;;;;3.27;1.65;;;;;;;18.72;89.68;97574.73;4424470;79;28540;-92
2022/09/28 22:39:06;;;;;;;4.03;1.67;;;;;;;18.68;91.12;97585.46;4417024;79;28474;-93
2022/09/28 22:45:08;;;;;;;3.22;1.60;;;;;;;18.76;91.58;97597.46;4414471;79;28504;-93
2022/09/28 22:51:10;;;;;;;3.52;1.62;;;;;;;18.67;92.40;97588.73;4481884;79;28611;-96
2022/09/28 22:57:57;;;;;;;2.80;1.70;;;;;;;18.60;93.26;97603.95;4449656;80;28500;-96
2022/09/28 23:03:59;;;;;;;2.98;1.62;;;;;;;18.78;92.32;97602.02;4404298;79;28523;-90
2022/09/28 23:10:01;;;;;;;3.02;1.60;;;;;;;18.90;92.28;97600.02;4396286;79;28491;-92
2022/09/28 23:16:09;;;;;;;1.87;1.30;;;;;;;18.75;92.92;97602.67;4398809;81;28556;-92
2022/09/28 23:22:10;;;;;;;3.47;1.27;;;;;;;18.73;92.31;97601.62;4399660;81;28500;-93
2022/09/28 23:28:12;;;;;;;3.72;1.60;;;;;;;19.01;90.87;97603.26;4394679;81;28553;-93
2022/09/28 23:34:13;;;;;;;2.67;1.20;;;;;;;18.88;90.98;97615.89;4374058;80;28484;-93
2022/09/28 23:40:15;;;;;;;1.90;0.98;;;;;;;18.45;93.82;97615.55;4373907;81;28474;-94
2022/09/28 23:46:16;;;;;;;2.50;1.30;;;;;;;18.61;93.26;97618.61;4375107;81;28541;-94
2022/09/28 23:52:19;;;;;;;2.22;1.20;;;;;;;18.38;95.46;97623.37;4375281;80;28618;-93
2022/09/28 23:58:21;;;;;;;3.90;1.50;;;;;;;18.29;95.94;97623.37;4374183;81;28578;-93
